This is the latest recevied weather packets stored in our database for station/object DM0MR. If no packets are shown the sender has not sent any weather packets the latest 10 day(s).
| Time | Temp. | Humidity | Pressure | Rain* | Wind** | Luminosity | Snow |
|---|---|---|---|---|---|---|---|
| 1777106480 | 15° C | 57% | 1007 hPa | 0 mm | - | - | - |
| 1777105581 | 15° C | 60% | 1007 hPa | 0 mm | - | - | - |
| 1777104679 | 14.44° C | 63% | 1006.9 hPa | 0 mm | - | - | - |
| 1777103782 | 14.44° C | 61% | 1007 hPa | 0 mm | - | - | - |
| 1777101979 | 15° C | 62% | 1006.9 hPa | 0 mm | - | - | - |
| 1777100179 | 12.22° C | 74% | 1007.2 hPa | 0 mm | - | - | - |
| 1777099280 | 11.11° C | 82% | 1007.3 hPa | 0 mm | - | - | - |
| 1777098383 | 10° C | 90% | 1007.3 hPa | 0 mm | - | - | - |
| 1777097479 | 8.33° C | 96% | 1007.1 hPa | 0 mm | - | - | - |
| 1777093880 | 4.44° C | 99% | 1007 hPa | 0 mm | - | - | - |
| 1777092981 | 3.33° C | 99% | 1007 hPa | 0 mm | - | - | - |
| 1777091180 | 2.22° C | 97% | 1006.9 hPa | 0 mm | - | - | - |
| 1777090279 | 2.22° C | 97% | 1006.7 hPa | 0 mm | - | - | - |
| 1777089381 | 2.22° C | 97% | 1006.8 hPa | 0 mm | - | - | - |
| 1777088478 | 2.78° C | 96% | 1006.7 hPa | 0 mm | - | - | - |
| 1777087581 | 2.78° C | 96% | 1006.9 hPa | 0 mm | - | - | - |
| 1777086680 | 2.78° C | 96% | 1006.9 hPa | 0 mm | - | - | - |
| 1777085779 | 2.78° C | 96% | 1007 hPa | 0 mm | - | - | - |
| 1777084878 | 2.78° C | 95% | 1007.1 hPa | 0 mm | - | - | - |
| 1777083979 | 2.78° C | 95% | 1007.1 hPa | 0 mm | - | - | - |
| 1777083080 | 3.33° C | 99% | 1007.1 hPa | 0 mm | - | - | - |
| 1777077679 | 4.44° C | 97% | 1007.5 hPa | 0 mm | - | - | - |
| 1777075879 | 4.44° C | 97% | 1007.6 hPa | 0 mm | - | - | - |
| 1777074980 | 5° C | 96% | 1007.7 hPa | 0 mm | - | - | - |
| 1777073180 | 5.56° C | 95% | 1008 hPa | 0 mm | - | - | - |
* Rain latest hour (hover to see other rain measurements)
** Current wind speed in m/s (hover to see current wind gust speed)